Terminal Aerodrome Forecast
Issued by NWS

Home | Current Version | Previous Version | Graphics & Text | Print | Product List | Glossary On
Versions: 1 2 3 4 5 6 7 8 9 10 11 12 13 14 15 16
000
FTUS43 KICT 140500
TAFHUT
TAF
KHUT 140522Z 1406/1506 35022G31KT P6SM SCT009 OVC012
      TEMPO 1406/1410 3SM -SN BR BKN008 OVC012
     FM141000 35020G30KT 3SM -SN BR OVC007
     FM141400 36023G33KT P6SM BKN020
     FM141600 36018G26KT P6SM SCT020 BKN035
     FM150000 32009KT P6SM SCT100=

USA.gov is the U.S. government's official web portal to all federal, state and local government web resources and services.